1852 Hurricane NOT_NAMED (1852271N15328)


IBTrACS version v04r00. Visit IBTrACS website for data access.
Please direct all questions to the IBTrACS Q and A forum

Storm track - Intensity - Wind Radii - Intensity Data - Source Data - All data

Summary Information

Storm ID 1852271N15328
Start Sep 26 12Z
Max Intensity 65 kt (Oct 4 06Z)
End Oct 5 06Z
ATCF IDs
Track status Best track data.

Storm track plot

Map of storm track

Intensity plots

Map of storm track

Radial wind information

No radial wind information for this storm


Position and Intensity Table

BASIN ISO_TIME_________ NATURE LAT LON MLC WIND
degrees north degrees east kts
NA 1852-09-26 12:00:00 TS 15.00 -31.90 35
NA 15:00:00 TS 15.25 -32.35 35
NA 18:00:00 TS 15.50 -32.80 35
NA 21:00:00 TS 15.75 -33.22 35
NA 1852-09-27 00:00:00 TS 16.00 -33.60 35
NA 03:00:00 TS 16.25 -33.92 35
NA 06:00:00 TS 16.50 -34.20 35
NA 09:00:00 TS 16.75 -34.45 35
NA 12:00:00 TS 17.00 -34.70 35
NA 15:00:00 TS 17.25 -35.00 35
NA 18:00:00 TS 17.50 -35.30 35
NA 21:00:00 TS 17.73 -35.57 35
NA 1852-09-28 00:00:00 TS 18.00 -35.80 35
NA 03:00:00 TS 18.33 -36.01 35
NA 06:00:00 TS 18.70 -36.20 35
NA 09:00:00 TS 19.05 -36.40 35
NA 12:00:00 TS 19.40 -36.60 35
NA 15:00:00 TS 19.76 -36.80 35
NA 18:00:00 TS 20.10 -37.00 35
NA 21:00:00 TS 20.39 -37.21 37
NA 1852-09-29 00:00:00 TS 20.70 -37.40 40
NA 03:00:00 TS 21.09 -37.57 40
NA 06:00:00 TS 21.50 -37.70 40
NA 09:00:00 TS 21.84 -37.81 40
NA 12:00:00 TS 22.20 -37.90 40
NA 15:00:00 TS 22.66 -38.00 40
NA 18:00:00 TS 23.10 -38.10 40
NA 21:00:00 TS 23.42 -38.21 42
NA 1852-09-30 00:00:00 TS 23.70 -38.30 45
NA 03:00:00 TS 24.00 -38.36 45
NA 06:00:00 TS 24.30 -38.40 45
NA 09:00:00 TS 24.60 -38.46 45
NA 12:00:00 TS 24.90 -38.50 45
NA 15:00:00 TS 25.21 -38.51 45
NA 18:00:00 TS 25.50 -38.50 45
NA 21:00:00 TS 25.75 -38.50 47
NA 1852-10-01 00:00:00 TS 26.00 -38.50 50
NA 03:00:00 TS 26.29 -38.50 50
NA 06:00:00 TS 26.60 -38.50 50
NA 09:00:00 TS 26.90 -38.51 50
NA 12:00:00 TS 27.20 -38.50 50
NA 15:00:00 TS 27.50 -38.41 50
NA 18:00:00 TS 27.80 -38.30 50
NA 21:00:00 TS 28.09 -38.25 52
NA 1852-10-02 00:00:00 TS 28.40 -38.20 55
NA 03:00:00 TS 28.74 -38.11 55
NA 06:00:00 TS 29.10 -38.00 55
NA 09:00:00 TS 29.45 -37.92 55
NA 12:00:00 TS 29.80 -37.80 55
NA 15:00:00 TS 30.15 -37.57 55
NA 18:00:00 TS 30.50 -37.30 55
NA 21:00:00 TS 30.84 -37.11 57
NA 1852-10-03 00:00:00 TS 31.20 -36.90 60
NA 03:00:00 TS 31.60 -36.61 60
NA 06:00:00 TS 32.00 -36.30 60
NA 09:00:00 TS 32.35 -36.06 60
NA 12:00:00 TS 32.70 -35.80 60
NA 15:00:00 TS 33.09 -35.46 60
NA 18:00:00 TS 33.50 -35.10 60
NA 21:00:00 TS 33.88 -34.81 60
NA 1852-10-04 00:00:00 TS 34.30 -34.50 60
NA 03:00:00 TS 34.76 -34.11 62
NA 06:00:00 TS 35.30 -33.70 65
NA 09:00:00 TS 35.93 -33.30 65
NA 12:00:00 TS 36.60 -32.90 65
NA 15:00:00 TS 37.17 -32.63 65
NA 18:00:00 TS 37.80 -32.10 65
NA 21:00:00 TS 38.40 -30.95 60
NA 1852-10-05 00:00:00 TS 39.50 -29.50 55
NA 03:00:00 TS 41.48 -28.03 52
NA 06:00:00 ET 44.00 -26.50 50

Source Information

Agency Information
USA
TOKYO
CMA
HKO
NEWDELHI
REUNION
BOM
NADI
WELLINGTON
DS824
TD9636
TD9635
NEUMANN
MLC

All available IBTrACS Data

SEASON BASIN SUBBASIN ISO_TIME_________ NATURE LAT LON DIST2LAND LANDFALL IFLAG USA SSHS MLC LAT MLC LON MLC CLASS MLC WIND STORM SPEED STORM DIR
Year degrees north degrees east km km 1 degrees north degrees east kts kts degrees
1852 NA NA 1852-09-26 12:00:00 TS 15.00 -31.90 1548 1548 _____________O -1 15.00 -31.90 TS 35 10 300
1852 NA NA 15:00:00 TS 15.25 -32.35 1602 1602 _____________P -1 15.25 -32.35 TS 35 10 300
1852 NA NA 18:00:00 TS 15.50 -32.80 1645 1645 _____________O -1 15.50 -32.80 TS 35 10 301
1852 NA NA 21:00:00 TS 15.75 -33.22 1688 1688 _____________P -1 15.75 -33.22 TS 35 9 303
1852 NA NA 1852-09-27 00:00:00 TS 16.00 -33.60 1732 1732 _____________O -1 16.00 -33.60 TS 35 8 307
1852 NA NA 03:00:00 TS 16.25 -33.92 1765 1765 _____________P -1 16.25 -33.92 TS 35 8 311
1852 NA NA 06:00:00 TS 16.50 -34.20 1799 1799 _____________O -1 16.50 -34.20 TS 35 7 315
1852 NA NA 09:00:00 TS 16.75 -34.45 1833 1833 _____________P -1 16.75 -34.45 TS 35 7 316
1852 NA NA 12:00:00 TS 17.00 -34.70 1857 1857 _____________O -1 17.00 -34.70 TS 35 7 314
1852 NA NA 15:00:00 TS 17.25 -35.00 1892 1892 _____________P -1 17.25 -35.00 TS 35 8 311
1852 NA NA 18:00:00 TS 17.50 -35.30 1927 1927 _____________O -1 17.50 -35.30 TS 35 7 312
1852 NA NA 21:00:00 TS 17.73 -35.57 1961 1961 _____________P -1 17.73 -35.57 TS 35 7 316
1852 NA NA 1852-09-28 00:00:00 TS 18.00 -35.80 1984 1982 _____________O -1 18.00 -35.80 TS 35 7 325
1852 NA NA 03:00:00 TS 18.33 -36.01 1998 1996 _____________P -1 18.33 -36.01 TS 35 8 332
1852 NA NA 06:00:00 TS 18.70 -36.20 2011 2009 _____________O -1 18.70 -36.20 TS 35 8 333
1852 NA NA 09:00:00 TS 19.05 -36.40 2026 2024 _____________P -1 19.05 -36.40 TS 35 8 332
1852 NA NA 12:00:00 TS 19.40 -36.60 2040 2039 _____________O -1 19.40 -36.60 TS 35 8 332
1852 NA NA 15:00:00 TS 19.76 -36.80 2056 2056 _____________P -1 19.76 -36.80 TS 35 8 332
1852 NA NA 18:00:00 TS 20.10 -37.00 2073 2072 _____________O -1 20.10 -37.00 TS 35 7 329
1852 NA NA 21:00:00 TS 20.39 -37.21 2090 2090 _____________P -1 20.39 -37.21 TS 37 7 328
1852 NA NA 1852-09-29 00:00:00 TS 20.70 -37.40 2109 2108 _____________O -1 20.70 -37.40 TS 40 8 335
1852 NA NA 03:00:00 TS 21.09 -37.57 2127 2126 _____________P -1 21.09 -37.57 TS 40 9 341
1852 NA NA 06:00:00 TS 21.50 -37.70 2135 2135 _____________O -1 21.50 -37.70 TS 40 8 343
1852 NA NA 09:00:00 TS 21.84 -37.81 2145 2143 _____________P -1 21.84 -37.81 TS 40 7 345
1852 NA NA 12:00:00 TS 22.20 -37.90 2152 2151 _____________O -1 22.20 -37.90 TS 40 8 348
1852 NA NA 15:00:00 TS 22.66 -38.00 2161 2160 _____________P -1 22.66 -38.00 TS 40 9 348
1852 NA NA 18:00:00 TS 23.10 -38.10 2170 2170 _____________O -1 23.10 -38.10 TS 40 8 346
1852 NA NA 21:00:00 TS 23.42 -38.21 2180 2180 _____________P -1 23.42 -38.21 TS 42 6 343
1852 NA NA 1852-09-30 00:00:00 TS 23.70 -38.30 2191 2191 _____________O -1 23.70 -38.30 TS 45 6 347
1852 NA NA 03:00:00 TS 24.00 -38.36 2202 2192 _____________P -1 24.00 -38.36 TS 45 6 352
1852 NA NA 06:00:00 TS 24.30 -38.40 2192 2183 _____________O -1 24.30 -38.40 TS 45 6 352
1852 NA NA 09:00:00 TS 24.60 -38.46 2193 2184 _____________P -1 24.60 -38.46 TS 45 6 352
1852 NA NA 12:00:00 TS 24.90 -38.50 2184 2176 _____________O -1 24.90 -38.50 TS 45 6 356
1852 NA NA 15:00:00 TS 25.21 -38.51 2176 2168 _____________P -1 25.21 -38.51 TS 45 6 1
1852 NA NA 18:00:00 TS 25.50 -38.50 2168 2163 _____________O -1 25.50 -38.50 TS 45 5 0
1852 NA NA 21:00:00 TS 25.75 -38.50 2161 2156 _____________P -1 25.75 -38.50 TS 47 5 2
1852 NA NA 1852-10-01 00:00:00 TS 26.00 -38.50 2156 2150 _____________O -1 26.00 -38.50 TS 50 5 0
1852 NA NA 03:00:00 TS 26.29 -38.50 2150 2144 _____________P -1 26.29 -38.50 TS 50 6 1
1852 NA NA 06:00:00 TS 26.60 -38.50 2144 2138 _____________O -1 26.60 -38.50 TS 50 6 358
1852 NA NA 09:00:00 TS 26.90 -38.51 2138 2133 _____________P -1 26.90 -38.51 TS 50 6 1
1852 NA NA 12:00:00 TS 27.20 -38.50 2133 2119 _____________O -1 27.20 -38.50 TS 50 6 9
1852 NA NA 15:00:00 TS 27.50 -38.41 2119 2105 _____________P -1 27.50 -38.41 TS 50 6 16
1852 NA NA 18:00:00 TS 27.80 -38.30 2105 2101 _____________O -1 27.80 -38.30 TS 50 6 13
1852 NA NA 21:00:00 TS 28.09 -38.25 2092 2088 _____________P -1 28.09 -38.25 TS 52 6 8
1852 NA NA 1852-10-02 00:00:00 TS 28.40 -38.20 2088 2076 _____________O -1 28.40 -38.20 TS 55 7 11
1852 NA NA 03:00:00 TS 28.74 -38.11 2076 2064 _____________P -1 28.74 -38.11 TS 55 7 14
1852 NA NA 06:00:00 TS 29.10 -38.00 2064 2053 _____________O -1 29.10 -38.00 TS 55 7 13
1852 NA NA 09:00:00 TS 29.45 -37.92 2053 2042 _____________P -1 29.45 -37.92 TS 55 7 14
1852 NA NA 12:00:00 TS 29.80 -37.80 2042 2023 _____________O -1 29.80 -37.80 TS 55 8 24
1852 NA NA 15:00:00 TS 30.15 -37.57 2023 1995 _____________P -1 30.15 -37.57 TS 55 8 32
1852 NA NA 18:00:00 TS 30.50 -37.30 1995 1977 _____________O -1 30.50 -37.30 TS 55 8 30
1852 NA NA 21:00:00 TS 30.84 -37.11 1977 1960 _____________P -1 30.84 -37.11 TS 57 8 26
1852 NA NA 1852-10-03 00:00:00 TS 31.20 -36.90 1961 1937 _____________O -1 31.20 -36.90 TS 60 9 29
1852 NA NA 03:00:00 TS 31.60 -36.61 1937 1912 _____________P -1 31.60 -36.61 TS 60 10 33
1852 NA NA 06:00:00 TS 32.00 -36.30 1914 1898 _____________O -1 32.00 -36.30 TS 60 9 32
1852 NA NA 09:00:00 TS 32.35 -36.06 1900 1877 _____________P -1 32.35 -36.06 TS 60 8 31
1852 NA NA 12:00:00 TS 32.70 -35.80 1879 1858 _____________O -1 32.70 -35.80 TS 60 9 34
1852 NA NA 15:00:00 TS 33.09 -35.46 1860 1834 _____________P -1 33.09 -35.46 TS 60 10 36
1852 NA NA 18:00:00 TS 33.50 -35.10 1834 1815 _____________O -1 33.50 -35.10 TS 60 10 34
1852 NA NA 21:00:00 TS 33.88 -34.81 1818 1804 _____________P -1 33.88 -34.81 TS 60 9 32
1852 NA NA 1852-10-04 00:00:00 TS 34.30 -34.50 1804 1783 _____________O -1 34.30 -34.50 TS 60 10 33
1852 NA NA 03:00:00 TS 34.76 -34.11 1786 1767 _____________P -1 34.76 -34.11 TS 62 12 33
1852 NA NA 06:00:00 TS 35.30 -33.70 1771 1763 _____________O -1 35.30 -33.70 HU 65 14 30
1852 NA NA 09:00:00 TS 35.93 -33.30 1764 1758 _____________P -1 35.93 -33.30 HU 65 15 27
1852 NA NA 12:00:00 TS 36.60 -32.90 1765 1762 _____________O -1 36.60 -32.90 HU 65 13 24
1852 NA NA 15:00:00 TS 37.17 -32.63 1773 1770 _____________P -1 37.17 -32.63 HU 65 14 28
1852 NA NA 18:00:00 TS 37.80 -32.10 1770 1728 _____________O -1 37.80 -32.10 HU 65 18 47
1852 NA NA 21:00:00 TS 38.40 -30.95 1728 1701 _____________P -1 38.40 -30.95 HU 60 26 50
1852 NA NA 1852-10-05 00:00:00 TS 39.50 -29.50 1707 1550 _____________O -1 39.50 -29.50 TS 55 38 36
1852 NA NA 03:00:00 TS 41.48 -28.03 1539 1392 _____________P -1 41.48 -28.03 TS 52 50 27
1852 NA NA 06:00:00 ET 44.00 -26.50 1384 _____________O -1 44.00 -26.50 EX 50 55 24